Time;durP1;ratioP1;P1;durP2;ratioP2;P2;SDS_P1;SDS_P2;PMS_P1;PMS_P2;Temp;Humidity;BMP_temperature;BMP_pressure;BME280_temperature;BME280_humidity;BME280_pressure;Samples;Min_cycle;Max_cycle;Signal;HPM_P1;HPM_P2
2022/05/12 00:00:37;;;;;;;11.10;5.87;;;;;;;;;;6188789;28;20320;-68
2022/05/12 00:03:58;;;;;;;9.83;5.63;;;;;;;;;;6202769;28;20233;-68
2022/05/12 00:07:18;;;;;;;13.23;5.83;;;;;;;;;;6204032;28;20221;-67
2022/05/12 00:10:39;;;;;;;9.17;5.33;;;;;;;;;;6202062;28;20253;-68
2022/05/12 00:14:01;;;;;;;9.73;3.83;;;;;;;;;;6197718;28;20352;-68
2022/05/12 00:17:22;;;;;;;8.80;3.90;;;;;;;;;;6194139;28;20264;-67
2022/05/12 00:20:43;;;;;;;8.50;3.87;;;;;;;;;;6201711;28;20241;-68
2022/05/12 00:24:04;;;;;;;9.13;5.23;;;;;;;;;;6194369;28;20234;-67
2022/05/12 00:27:24;;;;;;;7.97;3.57;;;;;;;;;;6199516;28;20285;-68
2022/05/12 00:30:46;;;;;;;8.73;3.63;;;;;;;;;;6205053;28;20229;-67
2022/05/12 00:34:08;;;;;;;7.03;3.17;;;;;;;;;;6209610;28;20507;-67
2022/05/12 00:37:28;;;;;;;7.30;3.13;;;;;;;;;;6205275;28;20241;-68
2022/05/12 00:40:49;;;;;;;11.87;3.83;;;;;;;;;;6201846;28;20606;-67
2022/05/12 00:44:11;;;;;;;7.23;3.83;;;;;;;;;;6200187;28;20240;-69
2022/05/12 00:47:32;;;;;;;7.00;3.87;;;;;;;;;;6203008;28;20229;-68
2022/05/12 00:50:53;;;;;;;6.00;3.60;;;;;;;;;;6207784;28;20773;-68
2022/05/12 00:54:18;;;;;;;8.07;3.43;;;;;;;;;;6199197;28;20902;-68
2022/05/12 00:57:40;;;;;;;6.93;3.53;;;;;;;;;;6204986;28;20325;-68
2022/05/12 01:01:01;;;;;;;9.97;4.60;;;;;;;;;;6203694;28;20245;-68
2022/05/12 01:04:23;;;;;;;11.47;4.13;;;;;;;;;;6202739;28;20221;-67
2022/05/12 01:07:44;;;;;;;8.70;4.37;;;;;;;;;;6199938;28;20234;-67
2022/05/12 01:11:07;;;;;;;10.97;4.53;;;;;;;;;;6199972;28;20229;-68
2022/05/12 01:14:28;;;;;;;8.87;4.43;;;;;;;;;;6197940;28;20233;-68
2022/05/12 01:17:48;;;;;;;7.60;4.00;;;;;;;;;;6200689;28;20744;-68
2022/05/12 01:21:12;;;;;;;8.47;4.10;;;;;;;;;;6195835;28;20224;-68
2022/05/12 01:24:35;;;;;;;7.57;4.17;;;;;;;;;;6202124;28;20566;-68
2022/05/12 01:27:56;;;;;;;8.97;3.97;;;;;;;;;;6199674;28;20229;-67
2022/05/12 01:31:17;;;;;;;6.80;3.97;;;;;;;;;;6205762;28;20674;-67
2022/05/12 01:34:38;;;;;;;11.47;4.67;;;;;;;;;;6203565;28;20237;-67
2022/05/12 01:37:59;;;;;;;15.17;4.20;;;;;;;;;;6202826;28;20596;-67
2022/05/12 01:41:21;;;;;;;10.73;4.83;;;;;;;;;;6212721;28;20494;-67
2022/05/12 01:44:42;;;;;;;5.07;3.87;;;;;;;;;;6207346;28;20256;-67
2022/05/12 01:48:02;;;;;;;8.23;5.03;;;;;;;;;;6197056;28;20496;-67
2022/05/12 01:51:23;;;;;;;12.47;5.23;;;;;;;;;;6197675;28;20233;-67
2022/05/12 01:54:44;;;;;;;8.97;3.93;;;;;;;;;;6206834;28;20229;-68
2022/05/12 01:58:07;;;;;;;8.73;4.40;;;;;;;;;;6204184;28;20234;-68
2022/05/12 02:01:27;;;;;;;4.93;3.33;;;;;;;;;;6204419;28;20611;-68
2022/05/12 02:04:48;;;;;;;5.97;3.60;;;;;;;;;;6206570;28;20241;-68
2022/05/12 02:08:11;;;;;;;4.43;3.10;;;;;;;;;;6200272;28;20244;-67
2022/05/12 02:11:31;;;;;;;5.60;2.57;;;;;;;;;;6208396;28;20482;-68
2022/05/12 02:14:54;;;;;;;5.77;2.60;;;;;;;;;;6199598;28;20237;-68
2022/05/12 02:18:14;;;;;;;2.70;2.50;;;;;;;;;;6210347;28;20237;-68
2022/05/12 02:21:36;;;;;;;3.70;2.77;;;;;;;;;;6208131;28;20232;-67
2022/05/12 02:24:56;;;;;;;7.50;2.73;;;;;;;;;;6210126;28;20217;-67
2022/05/12 02:28:17;;;;;;;4.07;2.17;;;;;;;;;;6210312;28;20224;-68
2022/05/12 02:31:39;;;;;;;3.80;3.27;;;;;;;;;;6204744;28;20233;-67
2022/05/12 02:34:59;;;;;;;4.97;2.57;;;;;;;;;;6202336;28;20264;-68
2022/05/12 02:38:20;;;;;;;3.53;2.73;;;;;;;;;;6204770;28;20229;-67
2022/05/12 02:41:40;;;;;;;4.90;2.67;;;;;;;;;;6208915;28;20229;-67
2022/05/12 02:45:01;;;;;;;4.97;3.00;;;;;;;;;;6204049;28;20229;-68
2022/05/12 02:48:24;;;;;;;4.43;3.43;;;;;;;;;;6204890;28;20241;-68
2022/05/12 02:51:45;;;;;;;5.40;2.70;;;;;;;;;;6201506;28;20237;-67
2022/05/12 02:55:06;;;;;;;4.40;2.00;;;;;;;;;;6201316;28;20225;-68
2022/05/12 02:58:27;;;;;;;2.70;1.30;;;;;;;;;;6200400;28;20229;-67
2022/05/12 03:01:47;;;;;;;1.80;1.30;;;;;;;;;;6202985;28;20237;-67
2022/05/12 03:05:10;;;;;;;2.03;1.10;;;;;;;;;;6207851;28;20599;-67
2022/05/12 03:08:30;;;;;;;1.67;1.23;;;;;;;;;;6206301;28;20244;-68
2022/05/12 03:11:51;;;;;;;1.20;0.80;;;;;;;;;;6206581;28;22250;-67
2022/05/12 03:15:12;;;;;;;2.43;1.77;;;;;;;;;;6206291;28;20257;-68
2022/05/12 03:18:33;;;;;;;1.50;0.90;;;;;;;;;;6207943;28;20316;-66
2022/05/12 03:21:55;;;;;;;2.77;1.03;;;;;;;;;;6204452;28;20233;-67
2022/05/12 03:25:16;;;;;;;1.83;1.17;;;;;;;;;;6202083;28;20506;-67
2022/05/12 03:28:37;;;;;;;1.60;1.03;;;;;;;;;;6200565;28;20768;-67
2022/05/12 03:31:58;;;;;;;2.73;1.30;;;;;;;;;;6202866;28;20240;-66
2022/05/12 03:35:19;;;;;;;3.47;2.47;;;;;;;;;;6203497;28;20233;-67
2022/05/12 03:38:41;;;;;;;2.83;2.03;;;;;;;;;;6202899;28;20319;-67
2022/05/12 03:42:02;;;;;;;5.20;1.97;;;;;;;;;;6205002;28;20340;-67
2022/05/12 03:45:23;;;;;;;2.10;2.00;;;;;;;;;;6198740;28;20284;-66
2022/05/12 03:48:44;;;;;;;3.03;1.80;;;;;;;;;;6195876;28;20225;-67
2022/05/12 03:52:05;;;;;;;2.47;2.00;;;;;;;;;;6201990;28;20257;-67
2022/05/12 03:55:27;;;;;;;4.87;3.73;;;;;;;;;;6200660;28;20547;-67
2022/05/12 03:58:48;;;;;;;2.30;2.10;;;;;;;;;;6205899;28;20237;-67
2022/05/12 04:02:09;;;;;;;3.37;1.80;;;;;;;;;;6197349;28;20230;-67
2022/05/12 04:05:31;;;;;;;3.90;1.53;;;;;;;;;;6202580;28;20225;-67
2022/05/12 04:08:51;;;;;;;8.17;4.20;;;;;;;;;;6204491;28;20217;-67
2022/05/12 04:12:14;;;;;;;5.50;1.90;;;;;;;;;;6204807;28;20277;-67
2022/05/12 04:15:34;;;;;;;2.73;1.97;;;;;;;;;;6204400;28;20233;-66
2022/05/12 04:18:55;;;;;;;6.37;2.53;;;;;;;;;;6197868;28;20225;-66
2022/05/12 04:22:15;;;;;;;3.63;1.87;;;;;;;;;;6204211;28;20224;-65
2022/05/12 04:25:36;;;;;;;6.83;2.80;;;;;;;;;;6204125;28;20269;-66
2022/05/12 04:28:58;;;;;;;3.43;2.23;;;;;;;;;;6199610;28;20330;-68
2022/05/12 04:32:19;;;;;;;8.27;2.77;;;;;;;;;;6202895;28;20340;-67
2022/05/12 04:35:38;;;;;;;8.73;3.50;;;;;;;;;;6201663;28;20252;-66
2022/05/12 04:38:59;;;;;;;6.90;3.30;;;;;;;;;;6200928;28;20311;-68
2022/05/12 04:42:19;;;;;;;5.50;3.10;;;;;;;;;;6202237;28;20233;-67
2022/05/12 04:45:41;;;;;;;4.60;2.73;;;;;;;;;;6205763;28;20237;-67
2022/05/12 04:49:02;;;;;;;4.63;2.90;;;;;;;;;;6200588;28;20233;-67
2022/05/12 04:52:22;;;;;;;11.13;2.93;;;;;;;;;;6208706;28;20236;-66
2022/05/12 04:55:45;;;;;;;5.47;2.80;;;;;;;;;;6206606;28;20229;-67
2022/05/12 04:59:06;;;;;;;6.53;3.13;;;;;;;;;;6204327;28;20780;-68
2022/05/12 05:02:28;;;;;;;7.33;2.97;;;;;;;;;;6198888;28;20315;-68
2022/05/12 05:05:49;;;;;;;6.77;3.13;;;;;;;;;;6208963;28;20225;-68
2022/05/12 05:09:10;;;;;;;8.83;3.57;;;;;;;;;;6211616;28;20232;-66
2022/05/12 05:12:31;;;;;;;5.43;3.00;;;;;;;;;;6213358;28;20707;-68
2022/05/12 05:15:53;;;;;;;9.17;3.03;;;;;;;;;;6210024;28;20229;-68
2022/05/12 05:19:15;;;;;;;8.27;2.67;;;;;;;;;;6203557;28;20225;-67
2022/05/12 05:22:36;;;;;;;7.63;2.50;;;;;;;;;;6208425;28;20225;-68
2022/05/12 05:25:56;;;;;;;4.97;3.17;;;;;;;;;;6209186;28;21778;-68
2022/05/12 05:29:17;;;;;;;7.77;4.43;;;;;;;;;;6194975;28;20229;-67
2022/05/12 05:32:38;;;;;;;6.43;3.60;;;;;;;;;;6208459;28;20237;-67
2022/05/12 05:35:59;;;;;;;5.87;3.23;;;;;;;;;;6209958;28;20248;-67
2022/05/12 05:39:21;;;;;;;4.50;3.00;;;;;;;;;;6206580;28;20549;-68
2022/05/12 05:42:41;;;;;;;7.80;3.40;;;;;;;;;;6205068;28;20232;-68
2022/05/12 05:46:02;;;;;;;9.40;5.77;;;;;;;;;;6209397;28;20233;-68
2022/05/12 05:49:23;;;;;;;6.50;3.70;;;;;;;;;;6210161;28;20233;-68
2022/05/12 05:56:23;;;;;;;9.90;2.90;;;;;;;;;;6201042;28;20623;-68
2022/05/12 05:59:43;;;;;;;4.27;2.57;;;;;;;;;;6211676;28;20245;-69
2022/05/12 06:03:05;;;;;;;6.33;3.13;;;;;;;;;;6202634;28;20252;-68
2022/05/12 06:06:26;;;;;;;6.87;2.90;;;;;;;;;;6209789;28;20233;-68
2022/05/12 06:09:48;;;;;;;8.60;3.93;;;;;;;;;;6205567;28;20245;-67
2022/05/12 06:13:08;;;;;;;6.60;2.63;;;;;;;;;;6203178;28;20569;-67
2022/05/12 06:16:29;;;;;;;7.90;2.80;;;;;;;;;;6192900;28;20519;-67
2022/05/12 06:19:50;;;;;;;6.43;2.70;;;;;;;;;;6194306;28;20630;-68
2022/05/12 06:23:11;;;;;;;7.63;2.90;;;;;;;;;;6202914;28;20237;-68
2022/05/12 06:26:33;;;;;;;9.73;3.00;;;;;;;;;;6206154;28;20507;-68
2022/05/12 06:29:55;;;;;;;8.83;3.20;;;;;;;;;;6191797;28;20277;-68
2022/05/12 06:33:16;;;;;;;7.20;4.17;;;;;;;;;;6196365;28;20356;-68
2022/05/12 06:36:36;;;;;;;5.43;2.90;;;;;;;;;;6196312;28;20237;-67
2022/05/12 06:39:57;;;;;;;6.20;2.63;;;;;;;;;;6211943;28;20217;-68
2022/05/12 06:43:18;;;;;;;3.93;2.43;;;;;;;;;;6207073;28;20256;-68
2022/05/12 06:46:41;;;;;;;7.47;2.70;;;;;;;;;;6207185;28;20229;-68
2022/05/12 06:50:03;;;;;;;4.47;2.50;;;;;;;;;;6203827;28;20236;-68
2022/05/12 06:53:23;;;;;;;7.27;2.80;;;;;;;;;;6198033;28;20226;-69
2022/05/12 06:56:44;;;;;;;8.70;2.80;;;;;;;;;;6197238;28;20249;-68
2022/05/12 07:00:08;;;;;;;3.47;2.57;;;;;;;;;;6198589;28;20513;-68
2022/05/12 07:03:30;;;;;;;6.00;2.70;;;;;;;;;;6205797;28;20221;-68
2022/05/12 07:06:50;;;;;;;4.13;2.33;;;;;;;;;;6205230;28;20245;-68
2022/05/12 07:10:11;;;;;;;5.67;2.33;;;;;;;;;;6205682;28;20249;-67
2022/05/12 07:13:32;;;;;;;2.97;2.20;;;;;;;;;;6207101;28;20229;-68
2022/05/12 07:16:54;;;;;;;4.00;2.33;;;;;;;;;;6207705;28;20257;-68
2022/05/12 07:27:32;;;;;;;4.77;2.20;;;;;;;;;;6206794;28;20551;-68
2022/05/12 07:31:02;;;;;;;5.47;2.97;;;;;;;;;;6200934;28;20252;-68
2022/05/12 07:34:24;;;;;;;7.27;2.40;;;;;;;;;;6190929;28;20232;-67
2022/05/12 07:37:45;;;;;;;2.67;2.20;;;;;;;;;;6191005;28;20240;-68
2022/05/12 07:41:07;;;;;;;4.80;2.57;;;;;;;;;;6197831;28;20470;-65
2022/05/12 07:44:32;;;;;;;4.60;2.97;;;;;;;;;;6204222;28;20484;-65
2022/05/12 07:47:52;;;;;;;5.23;3.23;;;;;;;;;;6195701;28;20234;-66
2022/05/12 07:51:14;;;;;;;4.53;3.10;;;;;;;;;;6202393;28;20587;-65
2022/05/12 07:54:36;;;;;;;4.93;3.33;;;;;;;;;;6192420;28;20234;-67
2022/05/12 07:57:57;;;;;;;6.53;4.53;;;;;;;;;;6197127;28;20312;-65
2022/05/12 08:01:17;;;;;;;3.80;3.07;;;;;;;;;;6186184;28;20528;-67
2022/05/12 08:04:39;;;;;;;5.03;3.13;;;;;;;;;;6190529;28;20535;-67
2022/05/12 08:08:01;;;;;;;5.07;3.30;;;;;;;;;;6184407;28;22460;-66
2022/05/12 08:11:21;;;;;;;4.70;3.03;;;;;;;;;;6186786;28;20225;-66
2022/05/12 08:14:42;;;;;;;4.07;2.77;;;;;;;;;;6181368;28;20225;-65
2022/05/12 08:18:03;;;;;;;3.90;2.87;;;;;;;;;;6191850;28;20245;-66
2022/05/12 08:21:24;;;;;;;4.13;2.77;;;;;;;;;;6191450;28;20221;-65
2022/05/12 08:24:46;;;;;;;4.67;2.47;;;;;;;;;;6188208;28;20226;-66
2022/05/12 08:28:07;;;;;;;4.60;2.63;;;;;;;;;;6192657;28;20241;-65
2022/05/12 08:31:29;;;;;;;6.10;2.27;;;;;;;;;;6185318;28;20240;-66
2022/05/12 08:34:50;;;;;;;4.50;2.30;;;;;;;;;;6184985;28;20997;-67
2022/05/12 08:38:10;;;;;;;5.40;2.17;;;;;;;;;;6184859;28;20241;-66
2022/05/12 08:41:35;;;;;;;5.47;2.53;;;;;;;;;;6185140;28;20244;-65
2022/05/12 08:44:56;;;;;;;5.30;1.90;;;;;;;;;;6191171;28;20237;-65
2022/05/12 08:48:17;;;;;;;7.30;1.97;;;;;;;;;;6190738;28;20233;-63
2022/05/12 08:51:37;;;;;;;2.77;1.93;;;;;;;;;;6194861;28;20237;-64
2022/05/12 08:55:02;;;;;;;4.17;1.50;;;;;;;;;;6203454;28;20229;-64
2022/05/12 08:58:25;;;;;;;2.90;1.93;;;;;;;;;;6191274;28;20241;-65
2022/05/12 09:01:52;;;;;;;3.77;1.77;;;;;;;;;;6181382;28;20233;-66
2022/05/12 09:05:14;;;;;;;2.73;1.23;;;;;;;;;;6184831;28;20233;-69
2022/05/12 09:08:38;;;;;;;5.43;1.77;;;;;;;;;;6186005;28;20232;-70
2022/05/12 09:12:02;;;;;;;3.17;1.33;;;;;;;;;;6180907;28;20238;-71
2022/05/12 09:15:27;;;;;;;5.07;2.00;;;;;;;;;;6178963;28;20225;-71
2022/05/12 09:18:47;;;;;;;3.53;1.60;;;;;;;;;;6177215;28;20225;-71
2022/05/12 09:22:10;;;;;;;2.53;1.60;;;;;;;;;;6180209;28;20666;-72
2022/05/12 09:25:32;;;;;;;5.23;1.57;;;;;;;;;;6180928;28;20229;-72
2022/05/12 09:28:53;;;;;;;4.07;2.93;;;;;;;;;;6180272;28;20244;-71
2022/05/12 09:32:22;;;;;;;2.37;1.07;;;;;;;;;;6167535;28;20326;-72
2022/05/12 09:35:53;;;;;;;1.60;1.30;;;;;;;;;;6179260;28;20236;-71
2022/05/12 09:39:32;;;;;;;2.43;1.17;;;;;;;;;;6181884;28;20670;-67
2022/05/12 09:42:53;;;;;;;3.42;1.55;;;;;;;;;;6178155;28;20226;-67
2022/05/12 09:46:21;;;;;;;2.67;1.63;;;;;;;;;;6176622;28;20338;-67
2022/05/12 09:49:44;;;;;;;2.22;1.42;;;;;;;;;;6192236;28;20232;-66
2022/05/12 09:53:07;;;;;;;3.10;1.25;;;;;;;;;;6185933;28;20811;-66
2022/05/12 09:56:29;;;;;;;3.70;1.57;;;;;;;;;;6191485;28;20226;-67
2022/05/12 09:59:52;;;;;;;3.92;1.48;;;;;;;;;;6186819;28;20610;-67
2022/05/12 10:10:50;;;;;;;3.92;1.45;;;;;;;;;;6169063;28;20320;-67
2022/05/12 10:14:18;;;;;;;3.20;1.55;;;;;;;;;;6184914;28;20250;-66
2022/05/12 10:17:41;;;;;;;3.35;1.30;;;;;;;;;;6185007;28;20236;-67
2022/05/12 10:21:08;;;;;;;3.22;1.35;;;;;;;;;;6181653;28;20233;-67
2022/05/12 10:24:34;;;;;;;3.58;1.55;;;;;;;;;;6181617;28;20230;-67
2022/05/12 10:27:58;;;;;;;4.78;2.35;;;;;;;;;;6176051;28;20607;-66
2022/05/12 10:31:24;;;;;;;3.88;1.75;;;;;;;;;;6173302;28;20244;-66
2022/05/12 10:34:51;;;;;;;3.05;1.92;;;;;;;;;;6181221;28;20905;-67
2022/05/12 10:38:18;;;;;;;2.42;1.35;;;;;;;;;;6181572;28;20240;-67
2022/05/12 10:41:43;;;;;;;2.88;1.10;;;;;;;;;;6189884;28;20860;-68
2022/05/12 10:45:10;;;;;;;2.63;0.95;;;;;;;;;;6182510;28;20237;-67
2022/05/12 10:48:36;;;;;;;3.17;1.10;;;;;;;;;;6185451;28;20245;-67
2022/05/12 10:52:04;;;;;;;3.60;1.63;;;;;;;;;;6187623;28;20236;-66
2022/05/12 10:55:28;;;;;;;3.38;1.48;;;;;;;;;;6183210;28;20261;-68
2022/05/12 10:58:57;;;;;;;2.53;1.35;;;;;;;;;;6182201;28;20225;-68
2022/05/12 11:02:20;;;;;;;3.53;1.65;;;;;;;;;;6179300;28;20842;-69
2022/05/12 11:05:45;;;;;;;4.05;1.50;;;;;;;;;;6183311;28;20230;-66
2022/05/12 11:09:06;;;;;;;2.30;1.40;;;;;;;;;;6177840;28;21124;-68
2022/05/12 11:12:29;;;;;;;3.72;1.38;;;;;;;;;;6177058;28;20807;-68
2022/05/12 11:15:54;;;;;;;4.72;1.25;;;;;;;;;;6180751;28;20304;-67
2022/05/12 11:19:16;;;;;;;2.03;1.15;;;;;;;;;;6172343;28;20786;-68
2022/05/12 11:22:42;;;;;;;2.53;1.40;;;;;;;;;;6167579;28;20229;-68
2022/05/12 11:26:07;;;;;;;2.33;1.48;;;;;;;;;;6172396;28;20229;-66
2022/05/12 11:29:44;;;;;;;3.42;1.38;;;;;;;;;;6173518;28;20256;-67
2022/05/12 11:33:19;;;;;;;2.90;1.33;;;;;;;;;;6178356;28;20229;-66
2022/05/12 11:36:41;;;;;;;3.35;1.13;;;;;;;;;;6194551;28;20602;-67
2022/05/12 11:40:03;;;;;;;2.45;1.63;;;;;;;;;;6186617;28;20253;-65
2022/05/12 11:47:31;;;;;;;3.08;1.48;;;;;;;;;;6191239;28;20233;-65
2022/05/12 11:50:58;;;;;;;3.63;1.20;;;;;;;;;;6185603;28;20288;-66
2022/05/12 11:54:23;;;;;;;5.32;1.45;;;;;;;;;;6188784;28;20233;-67
2022/05/12 11:57:44;;;;;;;1.38;1.23;;;;;;;;;;6189731;28;20236;-71
2022/05/12 12:01:06;;;;;;;2.60;1.75;;;;;;;;;;6194163;28;20676;-70
2022/05/12 12:04:44;;;;;;;3.40;1.20;;;;;;;;;;6187334;28;20236;-73
2022/05/12 12:08:08;;;;;;;2.15;0.95;;;;;;;;;;6185618;28;20591;-71
2022/05/12 12:11:30;;;;;;;2.42;1.75;;;;;;;;;;6185484;28;20233;-70
2022/05/12 12:14:58;;;;;;;3.78;1.65;;;;;;;;;;6189397;28;20226;-72
2022/05/12 12:18:37;;;;;;;2.63;1.58;;;;;;;;;;6190302;28;20224;-71
2022/05/12 12:22:25;;;;;;;4.72;1.00;;;;;;;;;;6183644;28;20256;-71
2022/05/12 12:25:54;;;;;;;4.82;1.40;;;;;;;;;;6189547;28;20229;-74
2022/05/12 12:29:17;;;;;;;4.13;1.42;;;;;;;;;;6187086;28;20328;-73
2022/05/12 12:32:37;;;;;;;2.13;1.13;;;;;;;;;;6181080;28;20245;-71
2022/05/12 12:36:01;;;;;;;4.30;1.60;;;;;;;;;;6188231;28;20233;-73
2022/05/12 12:39:30;;;;;;;3.92;0.98;;;;;;;;;;6179389;28;20240;-73
2022/05/12 12:42:53;;;;;;;4.05;1.40;;;;;;;;;;6179046;28;20763;-73
2022/05/12 12:46:17;;;;;;;2.25;1.63;;;;;;;;;;6186342;28;20565;-73
2022/05/12 12:49:44;;;;;;;5.13;1.33;;;;;;;;;;6188042;28;20229;-73
2022/05/12 12:53:05;;;;;;;3.58;1.40;;;;;;;;;;6181806;28;20233;-75
2022/05/12 12:56:32;;;;;;;1.88;1.60;;;;;;;;;;6182751;28;20232;-75
2022/05/12 12:59:56;;;;;;;2.65;1.05;;;;;;;;;;6192742;28;20245;-77
2022/05/12 13:03:20;;;;;;;3.45;1.50;;;;;;;;;;6186661;28;20257;-75
2022/05/12 13:06:41;;;;;;;4.10;1.55;;;;;;;;;;6190194;28;20229;-74
2022/05/12 13:10:03;;;;;;;2.58;1.13;;;;;;;;;;6189239;28;20249;-74
2022/05/12 13:13:24;;;;;;;3.53;1.52;;;;;;;;;;6189157;28;20292;-73
2022/05/12 13:16:48;;;;;;;2.38;1.42;;;;;;;;;;6188054;28;20772;-73
2022/05/12 13:20:12;;;;;;;1.35;0.88;;;;;;;;;;6181879;28;20289;-76
2022/05/12 13:23:36;;;;;;;3.05;1.02;;;;;;;;;;6191099;28;20229;-75
2022/05/12 13:26:58;;;;;;;1.77;1.10;;;;;;;;;;6191052;28;20718;-72
2022/05/12 13:30:20;;;;;;;2.42;1.00;;;;;;;;;;6191462;28;20606;-75
2022/05/12 13:33:57;;;;;;;2.78;1.23;;;;;;;;;;6192231;28;20236;-76
2022/05/12 13:37:20;;;;;;;1.92;1.38;;;;;;;;;;6198380;28;20229;-75
2022/05/12 13:40:43;;;;;;;2.50;1.38;;;;;;;;;;6195516;28;20237;-73
2022/05/12 13:44:10;;;;;;;8.55;1.90;;;;;;;;;;6195260;28;20234;-77
2022/05/12 13:47:33;;;;;;;3.50;1.05;;;;;;;;;;6200394;28;20829;-74
2022/05/12 13:50:56;;;;;;;2.17;1.35;;;;;;;;;;6195892;28;20616;-77
2022/05/12 13:54:24;;;;;;;2.30;1.00;;;;;;;;;;6189401;28;20317;-76
2022/05/12 13:57:48;;;;;;;2.85;1.30;;;;;;;;;;6194573;28;20525;-81
2022/05/12 14:01:09;;;;;;;4.10;2.55;;;;;;;;;;6196897;28;20519;-79
2022/05/12 14:04:30;;;;;;;2.63;1.23;;;;;;;;;;6190714;28;20262;-76
2022/05/12 14:08:07;;;;;;;1.85;1.20;;;;;;;;;;6188978;28;20237;-77
2022/05/12 14:11:29;;;;;;;1.58;1.23;;;;;;;;;;6189027;28;20536;-83
2022/05/12 14:22:07;;;;;;;5.40;1.30;;;;;;;;;;6190708;28;20461;-77
2022/05/12 14:25:30;;;;;;;3.10;1.40;;;;;;;;;;6195318;28;20320;-80
2022/05/12 14:28:50;;;;;;;2.90;1.25;;;;;;;;;;6190202;28;20233;-79
2022/05/12 14:32:13;;;;;;;2.63;1.30;;;;;;;;;;6195910;28;20631;-70
2022/05/12 14:35:34;;;;;;;3.30;1.52;;;;;;;;;;6197967;28;20237;-69
2022/05/12 14:38:54;;;;;;;2.10;1.27;;;;;;;;;;6191481;28;20233;-70
2022/05/12 14:42:16;;;;;;;3.13;1.52;;;;;;;;;;6192287;28;20776;-69
2022/05/12 14:45:37;;;;;;;2.88;1.33;;;;;;;;;;6196016;28;20229;-69
2022/05/12 14:48:58;;;;;;;2.45;2.20;;;;;;;;;;6198714;28;20230;-69
2022/05/12 14:52:20;;;;;;;4.65;2.88;;;;;;;;;;6192657;28;20801;-70
2022/05/12 14:55:41;;;;;;;5.05;1.70;;;;;;;;;;6195094;28;20233;-70
2022/05/12 14:59:02;;;;;;;5.00;1.88;;;;;;;;;;6177283;28;20261;-70
2022/05/12 15:02:26;;;;;;;3.53;1.35;;;;;;;;;;6203132;28;20233;-70
2022/05/12 15:05:47;;;;;;;4.78;2.90;;;;;;;;;;6208106;28;20532;-69
2022/05/12 15:09:08;;;;;;;5.47;3.15;;;;;;;;;;6204045;28;20224;-70
2022/05/12 15:12:28;;;;;;;3.72;1.92;;;;;;;;;;6202565;28;20675;-70
2022/05/12 15:15:50;;;;;;;3.92;1.42;;;;;;;;;;6204231;28;20500;-70
2022/05/12 15:19:11;;;;;;;3.70;2.08;;;;;;;;;;6204503;28;20544;-72
2022/05/12 15:22:32;;;;;;;3.53;1.90;;;;;;;;;;6207824;28;20245;-68
2022/05/12 15:25:52;;;;;;;6.78;1.92;;;;;;;;;;6208864;28;20229;-70
2022/05/12 15:29:13;;;;;;;4.18;1.80;;;;;;;;;;6203453;28;20237;-69
2022/05/12 15:32:35;;;;;;;6.97;2.65;;;;;;;;;;6207788;28;20233;-68
2022/05/12 15:35:56;;;;;;;4.97;1.92;;;;;;;;;;6206637;28;20608;-70
2022/05/12 15:39:19;;;;;;;9.55;2.05;;;;;;;;;;6203121;28;20316;-68
2022/05/12 15:42:39;;;;;;;4.35;1.55;;;;;;;;;;6211128;28;20218;-70
2022/05/12 15:46:00;;;;;;;4.22;1.83;;;;;;;;;;6203357;28;20229;-68
2022/05/12 15:49:23;;;;;;;4.65;2.03;;;;;;;;;;6207745;28;20233;-68
2022/05/12 15:52:44;;;;;;;6.93;2.05;;;;;;;;;;6205865;28;20241;-70
2022/05/12 15:56:05;;;;;;;7.05;1.88;;;;;;;;;;6205455;28;20241;-69
2022/05/12 15:59:26;;;;;;;4.05;1.77;;;;;;;;;;6202277;28;20679;-75
2022/05/12 16:02:47;;;;;;;5.65;2.38;;;;;;;;;;6199989;28;20250;-72
2022/05/12 16:06:09;;;;;;;3.20;1.85;;;;;;;;;;6198925;28;20233;-71
2022/05/12 16:09:29;;;;;;;4.68;2.90;;;;;;;;;;6191307;28;23664;-70
2022/05/12 16:12:56;;;;;;;4.47;2.08;;;;;;;;;;6196604;28;20233;-70
2022/05/12 16:16:18;;;;;;;5.78;2.00;;;;;;;;;;6183553;28;20233;-70
2022/05/12 16:19:38;;;;;;;4.90;1.77;;;;;;;;;;6191703;28;20293;-71
2022/05/12 16:23:00;;;;;;;5.05;1.33;;;;;;;;;;6177476;28;20229;-69
2022/05/12 16:26:21;;;;;;;7.97;2.63;;;;;;;;;;6175055;28;20308;-70
2022/05/12 16:29:43;;;;;;;4.35;2.40;;;;;;;;;;6166366;28;20754;-71
2022/05/12 16:33:03;;;;;;;4.40;1.90;;;;;;;;;;6168106;28;20229;-71
2022/05/12 16:36:24;;;;;;;3.30;2.33;;;;;;;;;;6171059;28;20241;-73
2022/05/12 16:39:46;;;;;;;2.65;1.30;;;;;;;;;;6181282;28;20245;-70
2022/05/12 16:43:07;;;;;;;3.10;1.38;;;;;;;;;;6163604;28;20240;-71
2022/05/12 16:46:27;;;;;;;3.63;2.03;;;;;;;;;;6176766;28;20226;-71
2022/05/12 16:49:48;;;;;;;2.25;1.38;;;;;;;;;;6174601;28;20527;-70
2022/05/12 16:53:10;;;;;;;4.18;1.30;;;;;;;;;;6170799;28;20229;-70
2022/05/12 16:56:32;;;;;;;4.53;1.73;;;;;;;;;;6176422;28;20681;-67
2022/05/12 16:59:54;;;;;;;3.40;2.38;;;;;;;;;;6177711;28;20236;-68
2022/05/12 17:03:15;;;;;;;3.35;1.63;;;;;;;;;;6172364;28;20240;-70
2022/05/12 17:06:36;;;;;;;3.08;1.55;;;;;;;;;;6204540;28;20244;-69
2022/05/12 17:09:56;;;;;;;4.13;2.08;;;;;;;;;;6202890;28;20224;-69
2022/05/12 17:13:18;;;;;;;2.30;1.45;;;;;;;;;;6209244;28;20232;-70
2022/05/12 17:16:39;;;;;;;2.45;1.63;;;;;;;;;;6200022;28;21075;-69
2022/05/12 17:19:59;;;;;;;3.90;1.98;;;;;;;;;;6202361;28;20614;-68
2022/05/12 17:23:20;;;;;;;4.35;2.55;;;;;;;;;;6186917;28;20761;-70
2022/05/12 17:26:40;;;;;;;5.65;2.50;;;;;;;;;;6201014;28;20872;-71
2022/05/12 17:30:03;;;;;;;4.88;2.00;;;;;;;;;;6198565;28;20228;-68
2022/05/12 17:33:23;;;;;;;5.97;2.50;;;;;;;;;;6211076;28;22317;-70
2022/05/12 17:36:44;;;;;;;6.00;3.13;;;;;;;;;;6202057;28;20233;-69
2022/05/12 17:40:12;;;;;;;4.00;2.00;;;;;;;;;;6201140;28;20250;-69
2022/05/12 17:43:33;;;;;;;4.70;1.98;;;;;;;;;;6203076;28;20232;-68
2022/05/12 17:46:55;;;;;;;4.72;2.20;;;;;;;;;;6212026;28;20224;-69
2022/05/12 17:50:16;;;;;;;6.75;2.30;;;;;;;;;;6212045;28;20580;-69
2022/05/12 17:53:36;;;;;;;4.70;2.50;;;;;;;;;;6207547;28;20237;-68
2022/05/12 17:56:57;;;;;;;4.32;1.88;;;;;;;;;;6198070;28;20264;-69
2022/05/12 18:00:18;;;;;;;3.75;1.85;;;;;;;;;;6191212;28;22455;-68
2022/05/12 18:03:41;;;;;;;7.50;3.35;;;;;;;;;;6203217;28;20225;-68
2022/05/12 18:07:01;;;;;;;4.65;2.47;;;;;;;;;;6203695;28;20637;-68
2022/05/12 18:10:22;;;;;;;5.13;2.20;;;;;;;;;;6190097;28;20495;-68
2022/05/12 18:13:43;;;;;;;7.10;3.13;;;;;;;;;;6190518;28;20517;-66
2022/05/12 18:17:04;;;;;;;4.35;1.73;;;;;;;;;;6187698;28;20225;-64
2022/05/12 18:20:26;;;;;;;7.00;2.58;;;;;;;;;;6186367;28;20241;-66
2022/05/12 18:23:46;;;;;;;3.90;2.30;;;;;;;;;;6196126;28;20225;-64
2022/05/12 18:27:07;;;;;;;4.22;2.28;;;;;;;;;;6191423;28;20256;-64
2022/05/12 18:30:28;;;;;;;8.50;6.75;;;;;;;;;;6202294;28;20233;-64
2022/05/12 18:33:49;;;;;;;7.33;5.37;;;;;;;;;;6199266;28;20234;-64
2022/05/12 18:37:11;;;;;;;9.40;2.87;;;;;;;;;;6197152;28;20241;-64
2022/05/12 18:40:33;;;;;;;4.13;2.03;;;;;;;;;;6206239;28;20229;-64
2022/05/12 18:43:53;;;;;;;5.10;2.37;;;;;;;;;;6192650;28;20522;-64
2022/05/12 18:47:14;;;;;;;5.80;2.80;;;;;;;;;;6191164;28;20237;-63
2022/05/12 18:50:35;;;;;;;4.70;2.10;;;;;;;;;;6193781;28;20222;-66
2022/05/12 18:53:57;;;;;;;5.00;2.20;;;;;;;;;;6195479;28;20229;-65
2022/05/12 18:57:18;;;;;;;5.47;2.10;;;;;;;;;;6197873;28;20678;-65
2022/05/12 19:00:41;;;;;;;6.27;2.50;;;;;;;;;;6195483;28;20237;-65
2022/05/12 19:04:03;;;;;;;4.67;2.47;;;;;;;;;;6192919;28;20225;-65
2022/05/12 19:07:25;;;;;;;8.57;3.13;;;;;;;;;;6194301;28;20260;-64
2022/05/12 19:10:46;;;;;;;5.33;2.60;;;;;;;;;;6194353;28;20371;-66
2022/05/12 19:14:07;;;;;;;5.73;2.90;;;;;;;;;;6194037;28;20674;-65
2022/05/12 19:17:29;;;;;;;8.43;2.60;;;;;;;;;;6195191;28;20232;-65
2022/05/12 19:20:51;;;;;;;4.67;2.77;;;;;;;;;;6201188;28;20259;-65
2022/05/12 19:24:11;;;;;;;9.57;3.07;;;;;;;;;;6214815;28;20599;-66
2022/05/12 19:27:33;;;;;;;7.27;3.10;;;;;;;;;;6201631;28;20229;-66
2022/05/12 19:30:54;;;;;;;7.10;2.57;;;;;;;;;;6206369;28;20228;-66
2022/05/12 19:34:14;;;;;;;7.57;2.47;;;;;;;;;;6200521;28;20229;-65
2022/05/12 19:37:35;;;;;;;6.73;2.40;;;;;;;;;;6201643;28;20832;-65
2022/05/12 19:40:55;;;;;;;4.73;2.63;;;;;;;;;;6207497;28;20234;-66
2022/05/12 19:44:17;;;;;;;5.07;3.00;;;;;;;;;;6200091;28;20650;-66
2022/05/12 19:47:38;;;;;;;5.33;2.73;;;;;;;;;;6202367;28;20494;-67
2022/05/12 19:50:58;;;;;;;4.73;2.43;;;;;;;;;;6201995;28;20217;-66
2022/05/12 19:54:19;;;;;;;8.93;2.50;;;;;;;;;;6192324;28;20261;-65
2022/05/12 19:57:40;;;;;;;4.57;2.47;;;;;;;;;;6195213;28;20237;-66
2022/05/12 20:01:03;;;;;;;5.43;2.77;;;;;;;;;;6188139;28;20256;-65
2022/05/12 20:04:23;;;;;;;9.87;3.67;;;;;;;;;;6194537;28;20611;-65
2022/05/12 20:07:44;;;;;;;4.23;2.70;;;;;;;;;;6190865;28;20245;-66
2022/05/12 20:11:04;;;;;;;6.97;2.90;;;;;;;;;;6191295;28;20234;-66
2022/05/12 20:14:25;;;;;;;7.30;3.47;;;;;;;;;;6188883;28;20225;-66
2022/05/12 20:17:47;;;;;;;5.23;2.63;;;;;;;;;;6193701;28;20312;-65
2022/05/12 20:21:08;;;;;;;5.13;2.73;;;;;;;;;;6198139;28;20651;-65
2022/05/12 20:24:29;;;;;;;8.13;2.87;;;;;;;;;;6189849;28;20228;-65
2022/05/12 20:27:49;;;;;;;6.47;2.73;;;;;;;;;;6194342;28;20233;-66
2022/05/12 20:31:10;;;;;;;6.90;3.10;;;;;;;;;;6192118;28;20233;-66
2022/05/12 20:34:32;;;;;;;7.47;3.03;;;;;;;;;;6192204;28;20257;-66
2022/05/12 20:37:53;;;;;;;4.83;2.57;;;;;;;;;;6205480;28;20240;-64
2022/05/12 20:41:14;;;;;;;8.30;2.83;;;;;;;;;;6206024;28;20320;-65